Martock, United Kingdom
Current Conditions -  °F | °C
As of 7:50 PM on Thursday 23 Oct 2014 (Local Time) from EGDY Reporting Station
Broken Clouds Broken Clouds  
Wind Chill: 59°   Ceiling: 3600
Heat Index: 59°   Visibility: 6mi
Dew Point: 55°   Wind: 6mph
Humidity: 88%   Direction: 220°SW
Pressure: 30.03"   Gusts: NA
Location:  50.97°N, 2.77°W
Report Text: EGDY 231850Z AUTO 22005KT 9999 FEW012/// SCT019/// BKN036/// 15/13 Q1017
Loading
Personal Weather Stations






























Interactive Weather Map
Tropical Storm Tracking
New forecast layout! Learn more

10-Day Weather Forecast

Advertisements
Track Severe Weather on mobile